createdAt,value
2018-09-11T00:00:07.448Z,17.30
2018-09-11T00:02:35.220Z,17.30
2018-09-11T00:05:03.008Z,17.40
2018-09-11T00:07:30.728Z,17.50
2018-09-11T00:09:58.512Z,17.00
2018-09-11T00:12:26.232Z,17.40
2018-09-11T00:14:54.575Z,17.30
2018-09-11T00:17:22.323Z,17.00
2018-09-11T00:19:50.062Z,17.10
2018-09-11T00:22:17.807Z,17.30
2018-09-11T00:24:45.545Z,16.90
2018-09-11T00:27:13.289Z,16.90
2018-09-11T00:29:41.014Z,16.80
2018-09-11T00:32:08.740Z,16.80
2018-09-11T00:34:36.522Z,17.10
2018-09-11T00:37:04.270Z,16.90
2018-09-11T00:39:32.059Z,16.80
2018-09-11T00:41:59.825Z,16.70
2018-09-11T00:44:27.536Z,16.80
2018-09-11T00:46:55.284Z,16.70
2018-09-11T00:49:23.067Z,16.70
2018-09-11T00:51:50.923Z,16.60
2018-09-11T00:54:18.602Z,16.30
2018-09-11T00:56:46.400Z,16.70
2018-09-11T00:59:14.202Z,16.70
2018-09-11T01:01:41.926Z,16.40
2018-09-11T01:04:09.675Z,16.70
2018-09-11T01:06:37.414Z,16.70
2018-09-11T01:09:07.593Z,16.80
2018-09-11T01:11:35.380Z,16.80
2018-09-11T01:14:03.147Z,16.70
2018-09-11T01:16:30.951Z,16.70
2018-09-11T01:18:58.717Z,16.70
2018-09-11T01:21:26.424Z,16.80
2018-09-11T01:23:54.165Z,16.70
2018-09-11T01:26:21.877Z,16.60
2018-09-11T01:28:49.652Z,16.80
2018-09-11T01:31:17.361Z,16.90
2018-09-11T01:33:45.084Z,16.70
2018-09-11T01:36:12.865Z,16.70
2018-09-11T01:38:40.665Z,16.80
2018-09-11T01:41:08.389Z,16.70
2018-09-11T01:43:36.108Z,16.40
2018-09-11T01:46:03.831Z,16.70
2018-09-11T01:48:31.581Z,16.70
2018-09-11T01:50:59.293Z,16.70
2018-09-11T01:53:27.020Z,16.60
2018-09-11T01:55:54.714Z,16.80
2018-09-11T01:58:22.457Z,16.60
2018-09-11T02:00:50.173Z,16.70
2018-09-11T02:03:17.885Z,16.70
2018-09-11T02:05:45.612Z,16.70
2018-09-11T02:08:13.354Z,16.50
2018-09-11T02:10:41.043Z,16.30
2018-09-11T02:13:08.772Z,16.50
2018-09-11T02:15:36.519Z,16.70
2018-09-11T02:18:04.486Z,16.60
2018-09-11T02:20:32.209Z,16.60
2018-09-11T02:22:59.937Z,16.60
2018-09-11T02:25:27.648Z,16.60
2018-09-11T02:27:56.926Z,16.60
2018-09-11T02:30:31.452Z,16.70
2018-09-11T02:32:59.190Z,16.50
2018-09-11T02:35:26.900Z,16.70
2018-09-11T02:37:54.615Z,16.70
2018-09-11T02:40:22.348Z,16.10
2018-09-11T02:42:50.073Z,16.50
2018-09-11T02:45:19.620Z,16.30
2018-09-11T02:47:47.346Z,16.50
2018-09-11T02:50:15.079Z,16.60
2018-09-11T02:52:42.805Z,16.20
2018-09-11T02:55:10.553Z,16.20
2018-09-11T02:57:38.267Z,16.20
2018-09-11T03:00:06.074Z,16.30
2018-09-11T03:02:33.819Z,16.30
2018-09-11T03:05:01.525Z,16.30
2018-09-11T03:07:29.228Z,16.30
2018-09-11T03:09:56.967Z,16.20
2018-09-11T03:12:24.689Z,16.00
2018-09-11T03:14:52.404Z,16.10
2018-09-11T03:17:20.101Z,16.00
2018-09-11T03:19:47.825Z,15.70
2018-09-11T03:22:15.526Z,16.00
2018-09-11T03:24:43.250Z,15.70
2018-09-11T03:27:10.939Z,16.10
2018-09-11T03:29:38.703Z,16.00
2018-09-11T03:32:06.681Z,15.60
2018-09-11T03:34:34.410Z,15.90
2018-09-11T03:37:02.224Z,15.70
2018-09-11T03:39:29.939Z,15.80
2018-09-11T03:41:57.668Z,15.60
2018-09-11T03:44:25.365Z,15.70
2018-09-11T03:46:53.074Z,15.80
2018-09-11T03:49:20.792Z,15.60
2018-09-11T03:51:48.505Z,15.60
2018-09-11T03:54:16.262Z,15.70
2018-09-11T03:56:43.936Z,15.60
2018-09-11T03:59:11.649Z,15.70
2018-09-11T04:01:39.377Z,15.60
2018-09-11T04:04:07.097Z,15.70
2018-09-11T04:06:34.792Z,15.50
2018-09-11T04:09:03.294Z,15.50
2018-09-11T04:11:30.989Z,15.50
2018-09-11T04:13:58.717Z,15.60
2018-09-11T04:16:26.428Z,15.70
2018-09-11T04:18:54.144Z,15.50
2018-09-11T04:21:21.841Z,15.50
2018-09-11T04:23:49.552Z,15.40
2018-09-11T04:26:17.402Z,15.40
2018-09-11T04:28:45.197Z,15.50
2018-09-11T04:31:12.972Z,15.10
2018-09-11T04:33:40.764Z,15.40
2018-09-11T04:36:08.475Z,15.50
2018-09-11T04:38:36.218Z,15.40
2018-09-11T04:41:03.974Z,14.90
2018-09-11T04:43:31.873Z,15.40
2018-09-11T04:45:59.584Z,15.50
2018-09-11T04:48:27.289Z,15.10
2018-09-11T04:50:55.026Z,15.50
2018-09-11T04:53:22.743Z,15.10
2018-09-11T04:55:50.475Z,15.00
2018-09-11T04:58:18.191Z,15.00
2018-09-11T05:00:45.920Z,15.00
2018-09-11T05:03:13.642Z,15.50
2018-09-11T05:05:41.390Z,15.30
2018-09-11T05:08:09.092Z,15.40
2018-09-11T05:10:36.849Z,14.90
2018-09-11T05:13:04.668Z,15.00
2018-09-11T05:15:32.405Z,14.90
2018-09-11T05:18:00.157Z,15.30
2018-09-11T05:20:27.917Z,15.00
2018-09-11T05:22:55.655Z,15.50
2018-09-11T05:25:23.358Z,15.00
2018-09-11T05:27:51.125Z,15.00
2018-09-11T05:30:18.840Z,15.60
2018-09-11T05:32:46.549Z,15.50
2018-09-11T05:35:14.272Z,15.40
2018-09-11T05:37:42.024Z,15.50
2018-09-11T05:40:09.765Z,15.40
2018-09-11T05:42:37.487Z,15.60
2018-09-11T05:45:05.496Z,15.50
2018-09-11T05:47:33.218Z,15.60
2018-09-11T05:50:00.926Z,15.60
2018-09-11T05:52:28.686Z,15.40
2018-09-11T05:54:56.464Z,15.50
2018-09-11T05:57:24.174Z,15.50
2018-09-11T05:59:51.891Z,15.90
2018-09-11T06:02:19.669Z,16.00
2018-09-11T06:04:47.388Z,16.00
2018-09-11T06:07:15.112Z,16.30
2018-09-11T06:09:42.836Z,15.90
2018-09-11T06:12:10.541Z,16.10
2018-09-11T06:14:38.269Z,16.20
2018-09-11T06:17:06.004Z,16.20
2018-09-11T06:19:33.744Z,16.40
2018-09-11T06:22:01.447Z,16.70
2018-09-11T06:24:29.200Z,16.60
2018-09-11T06:26:56.923Z,16.70
2018-09-11T06:29:24.663Z,16.30
2018-09-11T06:31:52.408Z,16.50
2018-09-11T06:34:20.109Z,16.30
2018-09-11T06:36:48.169Z,16.60
2018-09-11T06:39:15.899Z,16.60
2018-09-11T06:41:43.669Z,16.80
2018-09-11T06:44:11.391Z,16.80
2018-09-11T06:46:39.126Z,16.60
2018-09-11T06:49:06.825Z,16.70
2018-09-11T06:51:34.535Z,17.00
2018-09-11T06:54:02.236Z,17.00
2018-09-11T06:56:29.980Z,16.90
2018-09-11T06:58:57.766Z,16.90
2018-09-11T07:01:25.468Z,17.50
2018-09-11T07:03:53.177Z,17.40
2018-09-11T07:06:20.868Z,17.20
2018-09-11T07:08:48.608Z,17.00
2018-09-11T07:11:16.336Z,17.60
2018-09-11T07:13:44.084Z,17.40
2018-09-11T07:16:11.842Z,17.60
2018-09-11T07:18:39.533Z,17.80
2018-09-11T07:21:07.242Z,17.70
2018-09-11T07:23:34.975Z,18.30
2018-09-11T07:26:02.723Z,18.20
2018-09-11T07:28:30.441Z,18.20
2018-09-11T07:30:58.227Z,18.30
2018-09-11T07:33:25.943Z,18.30
2018-09-11T07:35:53.788Z,18.30
2018-09-11T07:38:21.521Z,18.50
2018-09-11T07:40:49.258Z,18.70
2018-09-11T07:43:16.968Z,19.10
2018-09-11T07:45:44.676Z,19.00
2018-09-11T07:48:12.381Z,18.80
2018-09-11T07:50:40.164Z,19.60
2018-09-11T07:53:07.859Z,19.90
2018-09-11T07:55:35.692Z,19.70
2018-09-11T07:58:03.422Z,19.90
2018-09-11T08:00:31.098Z,19.70
2018-09-11T08:02:58.901Z,19.90
2018-09-11T08:05:26.629Z,20.00
2018-09-11T08:07:54.363Z,20.30
2018-09-11T08:10:22.088Z,20.90
2018-09-11T08:12:49.812Z,21.00
2018-09-11T08:15:17.516Z,21.10
2018-09-11T08:17:45.321Z,21.20
2018-09-11T08:20:13.039Z,21.70
2018-09-11T08:22:40.757Z,22.40
2018-09-11T08:25:08.464Z,22.90
2018-09-11T08:27:36.193Z,23.60
2018-09-11T08:30:03.989Z,24.80
2018-09-11T08:32:32.045Z,26.60
2018-09-11T08:34:59.764Z,28.20
2018-09-11T08:37:27.513Z,28.90
2018-09-11T08:39:55.250Z,29.00
2018-09-11T08:42:23.009Z,28.90
2018-09-11T08:44:50.742Z,28.50
2018-09-11T08:47:18.503Z,27.40
2018-09-11T08:49:46.206Z,27.00
2018-09-11T08:52:14.022Z,27.20
2018-09-11T08:54:41.730Z,27.40
2018-09-11T08:57:09.469Z,26.90
2018-09-11T08:59:37.196Z,27.30
2018-09-11T09:02:04.961Z,27.80
2018-09-11T09:04:32.763Z,28.90
2018-09-11T09:07:00.490Z,28.20
2018-09-11T09:09:28.256Z,27.60
2018-09-11T09:11:55.985Z,28.40
2018-09-11T09:14:23.731Z,28.60
2018-09-11T09:16:51.435Z,28.00
2018-09-11T09:19:19.159Z,27.80
2018-09-11T09:21:46.898Z,28.50
2018-09-11T09:24:14.613Z,27.90
2018-09-11T09:26:42.324Z,27.50
2018-09-11T09:29:10.044Z,28.60
2018-09-11T09:31:37.792Z,28.40
2018-09-11T09:34:05.600Z,28.80
2018-09-11T09:36:33.444Z,29.70
2018-09-11T09:39:01.201Z,29.70
2018-09-11T09:41:28.972Z,29.20
2018-09-11T09:43:56.766Z,29.80
2018-09-11T09:46:24.453Z,29.60
2018-09-11T09:48:52.230Z,30.20
2018-09-11T09:51:19.953Z,31.30
2018-09-11T09:53:47.722Z,30.00
2018-09-11T09:56:15.744Z,29.70
2018-09-11T09:58:43.476Z,30.00
2018-09-11T10:01:16.951Z,30.80
2018-09-11T10:03:44.672Z,30.80
2018-09-11T10:06:12.371Z,31.50
2018-09-11T10:08:40.118Z,31.80
2018-09-11T10:11:07.840Z,32.70
2018-09-11T10:13:35.594Z,31.60
2018-09-11T10:16:03.372Z,30.30
2018-09-11T10:18:31.086Z,31.20
2018-09-11T10:20:58.835Z,30.00
2018-09-11T10:23:26.569Z,29.80
2018-09-11T10:25:54.282Z,29.00
2018-09-11T10:28:21.963Z,29.40
2018-09-11T10:30:49.749Z,29.30
2018-09-11T10:33:17.469Z,30.20
2018-09-11T10:35:45.249Z,30.00
2018-09-11T10:38:12.941Z,30.80
2018-09-11T10:40:40.695Z,31.30
2018-09-11T10:43:08.388Z,31.00
2018-09-11T10:45:36.092Z,30.50
2018-09-11T10:48:03.805Z,31.10
2018-09-11T10:50:31.500Z,32.20
2018-09-11T10:52:59.214Z,32.50
2018-09-11T10:55:26.900Z,32.20
2018-09-11T10:57:54.626Z,31.50
2018-09-11T11:00:22.394Z,30.40
2018-09-11T11:02:50.108Z,31.00
2018-09-11T11:05:18.065Z,31.90
2018-09-11T11:07:45.876Z,31.90
2018-09-11T11:10:13.656Z,31.50
2018-09-11T11:12:41.435Z,31.00
2018-09-11T11:15:09.217Z,31.70
2018-09-11T11:17:36.921Z,31.90
2018-09-11T11:20:04.961Z,31.80
2018-09-11T11:22:32.709Z,32.00
2018-09-11T11:25:00.561Z,31.40
2018-09-11T11:27:28.310Z,31.50
2018-09-11T11:29:56.056Z,32.30
2018-09-11T11:32:23.810Z,32.30
2018-09-11T11:34:51.533Z,32.30
2018-09-11T11:37:19.349Z,32.40
2018-09-11T11:39:47.046Z,31.60
2018-09-11T11:42:14.842Z,31.50
2018-09-11T11:44:42.537Z,31.40
2018-09-11T11:47:10.280Z,31.40
2018-09-11T11:49:38.049Z,31.20
2018-09-11T11:52:05.865Z,31.70
2018-09-11T11:54:33.586Z,31.90
2018-09-11T11:57:01.315Z,31.70
2018-09-11T11:59:29.084Z,31.40
2018-09-11T12:01:56.919Z,31.40
2018-09-11T12:04:24.658Z,31.50
2018-09-11T12:06:52.385Z,31.60
2018-09-11T12:09:20.145Z,31.80
2018-09-11T12:11:47.873Z,31.50
2018-09-11T12:14:15.642Z,31.30
2018-09-11T12:16:43.454Z,31.50
2018-09-11T12:19:11.205Z,31.50
2018-09-11T12:21:38.922Z,31.90
2018-09-11T12:24:06.708Z,31.90
2018-09-11T12:26:34.451Z,31.70
2018-09-11T12:29:02.220Z,32.00
2018-09-11T12:31:29.927Z,31.90
2018-09-11T12:33:57.669Z,32.20
2018-09-11T12:36:25.380Z,32.40
2018-09-11T12:38:53.173Z,31.90
2018-09-11T12:41:20.900Z,32.10
2018-09-11T12:43:48.631Z,32.10
2018-09-11T12:46:16.585Z,32.20
2018-09-11T12:48:44.213Z,32.30
2018-09-11T12:51:11.868Z,32.60
2018-09-11T12:53:39.600Z,32.60
2018-09-11T12:56:07.448Z,33.10
2018-09-11T12:58:35.206Z,31.30
2018-09-11T13:01:02.943Z,30.50
2018-09-11T13:03:30.678Z,31.50
2018-09-11T13:05:58.505Z,31.70
2018-09-11T13:08:26.225Z,31.40
2018-09-11T13:10:54.003Z,31.80
2018-09-11T13:13:21.768Z,31.70
2018-09-11T13:15:49.484Z,32.00
2018-09-11T13:18:17.248Z,32.30
2018-09-11T13:20:44.995Z,32.40
2018-09-11T13:23:12.729Z,32.70
2018-09-11T13:25:40.441Z,32.90
2018-09-11T13:28:08.192Z,32.10
2018-09-11T13:30:35.941Z,31.50
2018-09-11T13:33:03.733Z,31.90
2018-09-11T13:35:31.473Z,32.10
2018-09-11T13:37:59.312Z,32.00
2018-09-11T13:40:27.041Z,32.20
2018-09-11T13:42:54.802Z,31.80
2018-09-11T13:45:23.389Z,31.50
2018-09-11T13:47:51.217Z,31.30
2018-09-11T13:50:18.914Z,31.00
2018-09-11T13:52:46.667Z,31.00
2018-09-11T13:55:14.389Z,31.00
2018-09-11T13:57:42.118Z,30.90
2018-09-11T14:00:09.921Z,30.90
2018-09-11T14:02:37.666Z,30.60
2018-09-11T14:05:05.416Z,31.10
2018-09-11T14:07:33.245Z,30.90
2018-09-11T14:10:00.986Z,31.50
2018-09-11T14:12:28.737Z,31.80
2018-09-11T14:14:56.560Z,31.50
2018-09-11T14:17:24.348Z,31.40
2018-09-11T14:19:52.199Z,30.50
2018-09-11T14:22:20.022Z,30.60
2018-09-11T14:24:47.835Z,31.00
2018-09-11T14:27:15.576Z,31.20
2018-09-11T14:29:43.296Z,31.70
2018-09-11T14:32:11.064Z,31.10
2018-09-11T14:34:38.828Z,30.70
2018-09-11T14:37:06.616Z,31.30
2018-09-11T14:39:34.373Z,32.10
2018-09-11T14:42:02.124Z,31.90
2018-09-11T14:44:29.921Z,31.40
2018-09-11T14:46:57.706Z,31.00
2018-09-11T14:49:25.496Z,31.00
2018-09-11T14:51:53.248Z,30.30
2018-09-11T14:54:21.039Z,30.30
2018-09-11T14:56:48.782Z,30.00
2018-09-11T14:59:16.556Z,30.10
2018-09-11T15:01:44.325Z,29.50
2018-09-11T15:04:12.141Z,29.10
2018-09-11T15:06:39.910Z,29.10
2018-09-11T15:09:08.855Z,29.30
2018-09-11T15:11:36.754Z,29.60
2018-09-11T15:14:04.587Z,29.60
2018-09-11T15:16:32.382Z,29.50
2018-09-11T15:19:00.158Z,29.50
2018-09-11T15:21:27.932Z,29.50
2018-09-11T15:23:55.690Z,29.50
2018-09-11T15:26:23.528Z,29.00
2018-09-11T15:28:51.285Z,28.80
2018-09-11T15:31:19.090Z,28.80
2018-09-11T15:33:46.880Z,28.80
2018-09-11T15:36:14.655Z,28.80
2018-09-11T15:38:42.490Z,28.60
2018-09-11T15:41:10.260Z,28.50
2018-09-11T15:43:38.078Z,28.80
2018-09-11T15:46:05.838Z,28.30
2018-09-11T15:48:33.551Z,28.50
2018-09-11T15:51:01.233Z,28.20
2018-09-11T15:53:28.964Z,27.70
2018-09-11T15:55:56.693Z,27.70
2018-09-11T15:58:24.441Z,28.20
2018-09-11T16:00:52.449Z,28.10
2018-09-11T16:03:20.307Z,28.20
2018-09-11T16:05:48.009Z,28.10
2018-09-11T16:08:15.686Z,28.40
2018-09-11T16:10:43.424Z,28.20
2018-09-11T16:13:11.117Z,28.10
2018-09-11T16:15:38.851Z,28.00
2018-09-11T16:18:06.535Z,27.90
2018-09-11T16:20:34.256Z,27.70
2018-09-11T16:23:01.968Z,27.90
2018-09-11T16:25:29.706Z,27.50
2018-09-11T16:27:57.478Z,27.60
2018-09-11T16:30:25.172Z,27.60
2018-09-11T16:32:52.911Z,27.40
2018-09-11T16:35:20.622Z,27.30
2018-09-11T16:37:48.360Z,27.10
2018-09-11T16:40:16.152Z,27.30
2018-09-11T16:42:43.913Z,27.30
2018-09-11T16:45:11.643Z,27.30
2018-09-11T16:47:39.448Z,27.20
2018-09-11T16:50:07.256Z,27.30
2018-09-11T16:52:35.001Z,27.10
2018-09-11T16:55:02.788Z,27.30
2018-09-11T16:57:30.572Z,27.20
2018-09-11T16:59:58.382Z,26.80
2018-09-11T17:02:26.196Z,26.80
2018-09-11T17:04:53.925Z,26.60
2018-09-11T17:07:28.361Z,26.70
2018-09-11T17:09:56.106Z,26.60
2018-09-11T17:12:23.881Z,26.90
2018-09-11T17:14:51.715Z,26.50
2018-09-11T17:17:19.396Z,26.30
2018-09-11T17:19:47.128Z,26.30
2018-09-11T17:22:14.849Z,26.20
2018-09-11T17:24:42.572Z,26.40
2018-09-11T17:27:10.281Z,26.30
2018-09-11T17:29:37.971Z,26.40
2018-09-11T17:32:05.689Z,25.90
2018-09-11T17:34:33.409Z,26.00
2018-09-11T17:37:01.121Z,26.20
2018-09-11T17:39:28.817Z,26.10
2018-09-11T17:41:56.552Z,25.50
2018-09-11T17:44:24.281Z,25.80
2018-09-11T17:46:52.040Z,25.70
2018-09-11T17:49:19.732Z,25.60
2018-09-11T17:51:47.450Z,25.30
2018-09-11T17:54:15.173Z,25.40
2018-09-11T17:56:42.899Z,25.30
2018-09-11T17:59:10.637Z,25.30
2018-09-11T18:01:38.396Z,25.20
2018-09-11T18:04:06.173Z,25.30
2018-09-11T18:06:33.887Z,25.20
2018-09-11T18:09:01.660Z,24.90
2018-09-11T18:11:29.451Z,25.10
2018-09-11T18:13:57.198Z,25.10
2018-09-11T18:16:24.940Z,24.70
2018-09-11T18:18:52.691Z,25.10
2018-09-11T18:21:20.411Z,25.20
2018-09-11T18:23:48.233Z,24.90
2018-09-11T18:26:15.999Z,24.80
2018-09-11T18:28:43.711Z,24.90
2018-09-11T18:31:11.477Z,24.60
2018-09-11T18:33:39.288Z,24.70
2018-09-11T18:36:07.106Z,24.50
2018-09-11T18:38:34.841Z,24.60
2018-09-11T18:41:02.633Z,24.60
2018-09-11T18:43:30.356Z,24.50
2018-09-11T18:45:58.444Z,24.40
2018-09-11T18:48:26.185Z,24.50
2018-09-11T18:50:53.948Z,24.40
2018-09-11T18:53:21.719Z,24.40
2018-09-11T18:55:49.568Z,24.30
2018-09-11T18:58:17.285Z,24.30
2018-09-11T19:00:45.050Z,24.20
2018-09-11T19:03:12.810Z,23.70
2018-09-11T19:05:40.544Z,23.90
2018-09-11T19:08:08.375Z,23.80
2018-09-11T19:10:36.109Z,23.80
2018-09-11T19:13:03.836Z,23.60
2018-09-11T19:15:31.712Z,23.60
2018-09-11T19:17:59.437Z,23.60
2018-09-11T19:20:27.243Z,23.10
2018-09-11T19:22:54.944Z,23.00
2018-09-11T19:25:22.672Z,22.90
2018-09-11T19:27:51.005Z,22.80
2018-09-11T19:30:18.799Z,22.80
2018-09-11T19:32:46.516Z,22.90
2018-09-11T19:35:14.304Z,22.80
2018-09-11T19:37:41.996Z,22.90
2018-09-11T19:40:09.758Z,22.80
2018-09-11T19:42:37.486Z,22.30
2018-09-11T19:45:05.480Z,22.60
2018-09-11T19:47:33.206Z,22.10
2018-09-11T19:50:01.130Z,22.20
2018-09-11T19:52:29.209Z,22.10
2018-09-11T19:54:56.959Z,22.20
2018-09-11T19:57:24.794Z,21.90
2018-09-11T19:59:52.577Z,22.10
2018-09-11T20:02:20.331Z,22.00
2018-09-11T20:04:48.213Z,22.00
2018-09-11T20:07:15.885Z,22.00
2018-09-11T20:09:43.617Z,21.90
2018-09-11T20:12:11.368Z,22.00
2018-09-11T20:14:39.100Z,22.00
2018-09-11T20:17:06.864Z,21.90
2018-09-11T20:19:34.584Z,22.20
2018-09-11T20:22:02.339Z,21.80
2018-09-11T20:24:30.111Z,21.80
2018-09-11T20:26:57.906Z,21.80
2018-09-11T20:29:25.656Z,21.90
2018-09-11T20:31:53.451Z,22.00
2018-09-11T20:34:21.163Z,21.80
2018-09-11T20:36:48.907Z,22.00
2018-09-11T20:39:16.696Z,22.00
2018-09-11T20:41:44.487Z,21.80
2018-09-11T20:44:12.253Z,21.80
2018-09-11T20:46:39.993Z,21.60
2018-09-11T20:49:07.822Z,21.50
2018-09-11T20:51:35.623Z,21.70
2018-09-11T20:54:03.390Z,21.40
2018-09-11T20:56:31.176Z,21.40
2018-09-11T20:58:59.165Z,21.30
2018-09-11T21:01:26.913Z,21.40
2018-09-11T21:03:54.640Z,21.30
2018-09-11T21:06:22.484Z,21.30
2018-09-11T21:08:50.288Z,21.30
2018-09-11T21:11:18.064Z,21.30
2018-09-11T21:13:45.878Z,21.10
2018-09-11T21:16:13.722Z,21.10
2018-09-11T21:18:41.619Z,21.00
2018-09-11T21:21:09.380Z,21.00
2018-09-11T21:23:37.150Z,21.40
2018-09-11T21:26:04.900Z,20.90
2018-09-11T21:28:32.649Z,21.10
2018-09-11T21:31:00.397Z,21.10
2018-09-11T21:33:28.229Z,21.00
2018-09-11T21:35:55.968Z,21.00
2018-09-11T21:38:23.696Z,21.00
2018-09-11T21:40:51.451Z,20.90
2018-09-11T21:43:19.181Z,20.90
2018-09-11T21:45:46.946Z,21.00
2018-09-11T21:48:14.656Z,21.00
2018-09-11T21:50:42.422Z,21.10
2018-09-11T21:53:10.165Z,20.80
2018-09-11T21:55:37.956Z,20.90
2018-09-11T21:58:05.724Z,20.90
2018-09-11T22:00:33.641Z,21.00
2018-09-11T22:03:04.842Z,20.80
2018-09-11T22:05:32.804Z,20.70
2018-09-11T22:08:00.588Z,20.80
2018-09-11T22:10:29.264Z,20.20
2018-09-11T22:12:57.106Z,20.40
2018-09-11T22:15:24.836Z,20.60
2018-09-11T22:17:52.596Z,20.70
2018-09-11T22:20:20.335Z,20.50
2018-09-11T22:22:48.097Z,20.50
2018-09-11T22:25:15.879Z,20.30
2018-09-11T22:27:43.607Z,20.10
2018-09-11T22:30:11.367Z,20.40
2018-09-11T22:32:39.116Z,20.30
2018-09-11T22:35:06.912Z,20.20
2018-09-11T22:37:34.622Z,20.30
2018-09-11T22:40:02.454Z,20.30
2018-09-11T22:42:30.217Z,20.20
2018-09-11T22:44:57.977Z,20.10
2018-09-11T22:47:25.733Z,20.10
2018-09-11T22:49:53.462Z,19.70
2018-09-11T22:52:21.291Z,20.00
2018-09-11T22:54:49.149Z,19.90
2018-09-11T22:57:17.013Z,19.80
2018-09-11T22:59:44.738Z,19.70
2018-09-11T23:02:12.516Z,19.60
2018-09-11T23:04:40.277Z,19.40
2018-09-11T23:07:08.040Z,19.80
2018-09-11T23:09:35.821Z,19.60
2018-09-11T23:12:03.689Z,19.50
2018-09-11T23:14:31.478Z,19.50
2018-09-11T23:16:59.210Z,19.50
2018-09-11T23:19:26.976Z,19.50
2018-09-11T23:21:54.714Z,19.20
2018-09-11T23:24:22.467Z,19.40
2018-09-11T23:26:50.298Z,19.30
2018-09-11T23:29:18.066Z,19.50
2018-09-11T23:31:45.880Z,19.30
2018-09-11T23:34:13.635Z,19.60
2018-09-11T23:36:41.362Z,19.30
2018-09-11T23:39:09.162Z,19.40
2018-09-11T23:41:37.425Z,19.40
2018-09-11T23:44:05.240Z,19.40
2018-09-11T23:46:33.100Z,19.40
2018-09-11T23:49:00.833Z,19.20
2018-09-11T23:51:28.595Z,19.20
2018-09-11T23:53:56.325Z,19.40
2018-09-11T23:56:24.076Z,19.60
2018-09-11T23:58:51.854Z,19.20
